createdAt,value
2018-12-04T00:01:00.530Z,84.10
2018-12-04T00:03:34.779Z,82.80
2018-12-04T00:06:08.587Z,83.20
2018-12-04T00:08:38.067Z,82.00
2018-12-04T00:11:09.958Z,83.80
2018-12-04T00:13:41.246Z,82.20
2018-12-04T00:16:11.474Z,82.20
2018-12-04T00:18:45.773Z,82.70
2018-12-04T00:21:17.470Z,82.30
2018-12-04T00:23:52.102Z,82.30
2018-12-04T00:26:23.299Z,82.30
2018-12-04T00:28:56.912Z,82.30
2018-12-04T00:31:29.460Z,81.90
2018-12-04T00:34:03.794Z,82.30
2018-12-04T00:36:35.647Z,82.30
2018-12-04T00:39:06.948Z,82.20
2018-12-04T00:41:38.740Z,82.60
2018-12-04T00:44:08.847Z,82.30
2018-12-04T00:46:42.598Z,82.90
2018-12-04T00:49:16.535Z,82.20
2018-12-04T00:51:47.898Z,82.20
2018-12-04T00:54:17.882Z,81.00
2018-12-04T00:56:49.422Z,80.80
2018-12-04T00:59:21.461Z,80.20
2018-12-04T01:01:53.547Z,80.60
2018-12-04T01:04:23.398Z,80.20
2018-12-04T01:06:57.167Z,81.30
2018-12-04T01:09:28.967Z,80.60
2018-12-04T01:12:01.108Z,80.60
2018-12-04T01:14:33.305Z,80.50
2018-12-04T01:17:07.016Z,79.60
2018-12-04T01:19:40.995Z,80.30
2018-12-04T01:22:15.198Z,79.30
2018-12-04T01:24:48.301Z,79.40
2018-12-04T01:27:22.428Z,79.00
2018-12-04T01:29:51.808Z,79.40
2018-12-04T01:32:27.383Z,81.10
2018-12-04T01:35:01.200Z,80.80
2018-12-04T01:37:31.200Z,79.70
2018-12-04T01:40:03.710Z,80.10
2018-12-04T01:42:36.364Z,79.00
2018-12-04T01:45:11.659Z,78.70
2018-12-04T01:47:42.848Z,79.90
2018-12-04T01:50:16.537Z,80.70
2018-12-04T01:52:47.993Z,81.00
2018-12-04T01:55:22.525Z,80.80
2018-12-04T01:57:54.333Z,81.50
2018-12-04T02:00:28.061Z,79.80
2018-12-04T02:02:59.678Z,79.30
2018-12-04T02:05:33.877Z,79.10
2018-12-04T02:08:08.055Z,78.30
2018-12-04T02:10:39.637Z,78.90
2018-12-04T02:13:14.650Z,78.60
2018-12-04T02:15:46.981Z,79.60
2018-12-04T02:18:20.738Z,80.00
2018-12-04T02:20:52.258Z,79.90
2018-12-04T02:23:24.135Z,79.50
2018-12-04T02:25:56.023Z,78.90
2018-12-04T02:28:29.579Z,79.20
2018-12-04T02:31:01.183Z,79.60
2018-12-04T02:33:36.006Z,78.20
2018-12-04T02:36:10.112Z,78.00
2018-12-04T02:38:41.746Z,77.70
2018-12-04T02:41:16.231Z,77.40
2018-12-04T02:43:47.593Z,76.70
2018-12-04T02:46:22.070Z,76.40
2018-12-04T02:48:53.878Z,76.80
2018-12-04T02:51:28.206Z,77.10
2018-12-04T02:53:59.409Z,76.50
2018-12-04T02:56:33.770Z,75.90
2018-12-04T02:59:05.409Z,76.80
2018-12-04T03:01:39.752Z,77.10
2018-12-04T03:04:11.295Z,76.20
2018-12-04T03:06:41.124Z,75.40
2018-12-04T03:09:14.762Z,76.00
2018-12-04T03:11:48.544Z,75.90
2018-12-04T03:14:20.045Z,75.60
2018-12-04T03:16:49.277Z,74.70
2018-12-04T03:19:20.904Z,75.60
2018-12-04T03:21:49.328Z,75.10
2018-12-04T03:24:21.210Z,75.20
2018-12-04T03:26:49.401Z,74.70
2018-12-04T03:29:17.816Z,72.80
2018-12-04T03:31:51.908Z,73.60
2018-12-04T03:34:20.108Z,72.60
2018-12-04T03:36:49.901Z,73.90
2018-12-04T03:39:21.630Z,74.00
2018-12-04T03:41:50.054Z,73.20
2018-12-04T03:44:19.817Z,73.60
2018-12-04T03:46:52.629Z,73.60
2018-12-04T03:49:20.875Z,73.60
2018-12-04T03:51:52.483Z,73.10
2018-12-04T03:54:26.799Z,72.70
2018-12-04T03:57:00.670Z,71.50
2018-12-04T03:59:32.163Z,71.50
2018-12-04T04:05:08.623Z,71.50
2018-12-04T04:07:36.768Z,71.50
2018-12-04T04:10:06.179Z,71.50
2018-12-04T04:12:34.274Z,71.50
2018-12-04T04:15:08.989Z,71.40
2018-12-04T04:17:43.564Z,71.40
2018-12-04T04:20:12.313Z,71.40
2018-12-04T04:22:42.344Z,71.40
2018-12-04T04:25:13.632Z,71.40
2018-12-04T04:27:45.135Z,71.30
2018-12-04T04:30:19.717Z,71.30
2018-12-04T04:32:51.232Z,71.80
2018-12-04T04:35:25.787Z,72.50
2018-12-04T04:37:57.481Z,72.50
2018-12-04T04:40:29.238Z,72.90
2018-12-04T04:42:59.302Z,73.60
2018-12-04T04:45:29.359Z,74.00
2018-12-04T04:48:02.979Z,74.00
2018-12-04T04:53:30.641Z,72.30
2018-12-04T04:55:58.787Z,72.90
2018-12-04T04:58:26.872Z,72.70
2018-12-04T05:00:54.979Z,72.40
2018-12-04T05:03:23.176Z,71.40
2018-12-04T05:05:51.369Z,72.20
2018-12-04T05:08:19.430Z,71.80
2018-12-04T05:10:47.636Z,72.20
2018-12-04T05:13:15.925Z,72.40
2018-12-04T05:15:44.021Z,72.30
2018-12-04T05:18:21.604Z,72.10
2018-12-04T05:20:49.673Z,72.90
2018-12-04T05:23:18.032Z,73.00
2018-12-04T05:25:46.136Z,73.00
2018-12-04T05:28:14.380Z,73.50
2018-12-04T05:30:44.106Z,73.20
2018-12-04T05:33:12.341Z,73.10
2018-12-04T05:35:40.615Z,72.40
2018-12-04T05:38:08.874Z,70.60
2018-12-04T05:40:38.372Z,70.70
2018-12-04T05:43:12.393Z,70.60
2018-12-04T05:45:42.018Z,70.60
2018-12-04T05:48:14.877Z,71.70
2018-12-04T05:50:49.608Z,73.60
2018-12-04T05:53:33.316Z,74.40
2018-12-04T05:56:04.741Z,75.00
2018-12-04T05:58:36.121Z,75.50
2018-12-04T06:01:04.351Z,76.00
2018-12-04T06:03:38.627Z,75.40
2018-12-04T06:06:06.873Z,76.40
2018-12-04T06:08:35.219Z,76.40
2018-12-04T06:11:03.565Z,75.00
2018-12-04T06:13:31.730Z,74.10
2018-12-04T06:15:59.920Z,71.90
2018-12-04T06:18:28.143Z,72.20
2018-12-04T06:20:56.244Z,70.80
2018-12-04T06:23:24.371Z,70.90
2018-12-04T06:28:59.030Z,69.40
2018-12-04T06:31:28.642Z,67.40
2018-12-04T06:33:56.798Z,68.80
2018-12-04T06:36:37.612Z,67.70
2018-12-04T06:39:12.353Z,68.70
2018-12-04T06:41:46.237Z,68.70
2018-12-04T06:44:20.201Z,67.50
2018-12-04T06:46:51.631Z,67.00
2018-12-04T06:49:25.486Z,66.40
2018-12-04T06:52:00.130Z,66.40
2018-12-04T06:54:34.149Z,66.90
2018-12-04T06:57:15.024Z,67.00
2018-12-04T06:59:46.801Z,67.20
2018-12-04T07:02:21.393Z,68.30
2018-12-04T07:04:49.475Z,68.40
2018-12-04T07:07:21.864Z,68.40
2018-12-04T07:09:53.243Z,68.50
2018-12-04T07:12:25.026Z,67.90
2018-12-04T07:14:58.984Z,67.60
2018-12-04T07:17:27.153Z,68.70
2018-12-04T07:19:55.267Z,68.00
2018-12-04T07:22:37.161Z,68.30
2018-12-04T07:25:17.837Z,68.20
2018-12-04T07:27:49.484Z,68.70
2018-12-04T07:30:23.652Z,68.20
2018-12-04T07:32:53.345Z,67.40
2018-12-04T07:35:25.137Z,67.30
2018-12-04T07:37:53.276Z,67.40
2018-12-04T07:40:21.436Z,66.70
2018-12-04T07:42:49.542Z,67.90
2018-12-04T07:45:19.643Z,66.00
2018-12-04T07:47:51.014Z,66.60
2018-12-04T07:50:19.126Z,67.10
2018-12-04T07:52:47.224Z,68.20
2018-12-04T07:55:21.559Z,67.40
2018-12-04T07:57:55.448Z,67.80
2018-12-04T08:00:23.610Z,67.30
2018-12-04T08:02:51.783Z,68.00
2018-12-04T08:07:57.525Z,67.10
2018-12-04T08:10:25.679Z,68.50
2018-12-04T08:13:12.942Z,67.60
2018-12-04T08:15:46.949Z,69.20
2018-12-04T08:18:18.158Z,68.30
2018-12-04T08:20:46.288Z,69.40
2018-12-04T08:23:14.431Z,67.70
2018-12-04T08:25:42.597Z,67.20
2018-12-04T08:28:15.729Z,67.10
2018-12-04T08:30:43.930Z,68.40
2018-12-04T08:33:12.019Z,68.40
2018-12-04T08:35:40.138Z,67.10
2018-12-04T08:38:08.296Z,67.50
2018-12-04T08:40:36.418Z,67.80
2018-12-04T08:43:04.615Z,67.50
2018-12-04T08:45:32.723Z,66.80
2018-12-04T08:48:04.627Z,66.30
2018-12-04T08:53:35.923Z,66.80
2018-12-04T08:56:16.657Z,66.60
2018-12-04T08:58:44.857Z,66.00
2018-12-04T09:01:13.580Z,66.10
2018-12-04T09:03:41.719Z,65.60
2018-12-04T09:08:42.666Z,66.20
2018-12-04T09:11:17.175Z,65.60
2018-12-04T09:13:49.095Z,65.60
2018-12-04T09:16:23.486Z,65.50
2018-12-04T09:18:58.554Z,64.90
2018-12-04T09:21:29.096Z,65.40
2018-12-04T09:24:00.719Z,63.90
2018-12-04T09:26:32.980Z,63.80
2018-12-04T09:29:06.528Z,62.00
2018-12-04T09:31:37.857Z,62.50
2018-12-04T09:34:05.926Z,62.80
2018-12-04T09:36:40.156Z,63.80
2018-12-04T09:39:11.981Z,61.80
2018-12-04T09:41:43.439Z,60.20
2018-12-04T09:44:14.832Z,58.00
2018-12-04T09:46:48.470Z,60.30
2018-12-04T09:49:23.613Z,59.60
2018-12-04T09:51:55.324Z,58.40
2018-12-04T09:54:27.333Z,57.00
2018-12-04T09:56:58.890Z,57.10
2018-12-04T09:59:30.379Z,57.00
2018-12-04T10:02:01.577Z,56.90
2018-12-04T10:04:33.713Z,57.30
2018-12-04T10:12:02.340Z,55.80
2018-12-04T10:14:37.543Z,55.50
2018-12-04T10:17:09.620Z,54.60
2018-12-04T10:19:41.631Z,56.10
2018-12-04T10:22:16.078Z,55.60
2018-12-04T10:24:47.655Z,56.60
2018-12-04T10:27:17.931Z,56.00
2018-12-04T10:29:51.632Z,55.80
2018-12-04T10:32:26.009Z,54.40
2018-12-04T10:34:57.584Z,54.40
2018-12-04T10:37:40.064Z,52.50
2018-12-04T10:40:09.153Z,51.20
2018-12-04T10:42:40.753Z,52.00
2018-12-04T10:45:14.785Z,51.80
2018-12-04T10:47:44.896Z,51.00
2018-12-04T10:50:17.108Z,50.50
2018-12-04T10:52:48.248Z,50.20
2018-12-04T10:55:19.629Z,49.40
2018-12-04T10:57:47.794Z,50.00
2018-12-04T11:00:21.582Z,49.80
2018-12-04T11:05:54.224Z,50.20
2018-12-04T11:08:22.632Z,49.50
2018-12-04T11:13:59.233Z,49.50
2018-12-04T11:16:37.100Z,49.40
2018-12-04T11:19:05.291Z,49.50
2018-12-04T11:21:39.786Z,49.20
2018-12-04T11:24:10.997Z,49.20
2018-12-04T11:26:45.217Z,49.20
2018-12-04T11:29:16.593Z,50.10
2018-12-04T11:31:50.880Z,50.10
2018-12-04T11:34:22.514Z,50.00
2018-12-04T11:36:54.239Z,48.80
2018-12-04T11:39:26.259Z,49.40
2018-12-04T11:42:00.782Z,47.00
2018-12-04T11:44:29.673Z,47.30
2018-12-04T11:46:59.691Z,47.20
2018-12-04T11:52:33.798Z,47.60
2018-12-04T11:55:01.874Z,47.40
2018-12-04T11:57:30.029Z,47.50
2018-12-04T12:00:08.520Z,47.90
2018-12-04T12:02:40.526Z,47.80
2018-12-04T12:05:31.542Z,46.50
2018-12-04T12:08:00.715Z,48.70
2018-12-04T12:10:32.162Z,48.30
2018-12-04T12:13:04.138Z,46.10
2018-12-04T12:15:38.603Z,46.00
2018-12-04T12:18:08.335Z,45.40
2018-12-04T12:20:41.479Z,45.70
2018-12-04T12:23:10.644Z,43.40
2018-12-04T12:25:41.834Z,44.60
2018-12-04T12:28:16.270Z,46.20
2018-12-04T12:30:49.894Z,45.50
2018-12-04T12:36:23.862Z,44.50
2018-12-04T12:38:59.064Z,44.70
2018-12-04T12:41:30.842Z,46.00
2018-12-04T12:43:59.153Z,46.50
2018-12-04T12:46:27.322Z,44.90
2018-12-04T12:48:55.412Z,47.40
2018-12-04T12:51:23.796Z,45.70
2018-12-04T12:53:58.008Z,45.80
2018-12-04T12:56:26.152Z,45.00
2018-12-04T12:58:54.295Z,44.80
2018-12-04T13:01:22.394Z,45.70
2018-12-04T13:03:50.614Z,46.40
2018-12-04T13:06:18.808Z,45.40
2018-12-04T13:08:46.971Z,44.90
2018-12-04T13:11:15.926Z,46.50
2018-12-04T13:13:44.081Z,45.50
2018-12-04T13:16:12.264Z,44.00
2018-12-04T13:21:18.286Z,42.00
2018-12-04T13:23:46.455Z,41.10
2018-12-04T13:26:19.605Z,41.00
2018-12-04T13:28:47.720Z,40.90
2018-12-04T13:31:15.904Z,40.50
2018-12-04T13:33:44.083Z,41.90
2018-12-04T13:36:12.228Z,42.10
2018-12-04T13:41:40.277Z,44.00
2018-12-04T13:44:08.463Z,44.80
2018-12-04T13:46:36.670Z,45.10
2018-12-04T13:49:05.098Z,45.80
2018-12-04T13:51:33.285Z,45.20
2018-12-04T13:54:01.390Z,44.40
2018-12-04T13:56:29.605Z,43.70
2018-12-04T13:58:57.791Z,44.70
2018-12-04T14:01:26.131Z,45.70
2018-12-04T14:03:54.301Z,45.30
2018-12-04T14:06:22.442Z,44.40
2018-12-04T14:08:50.685Z,42.70
2018-12-04T14:11:18.840Z,43.50
2018-12-04T14:13:47.096Z,44.20
2018-12-04T14:16:15.313Z,44.00
2018-12-04T14:18:43.559Z,43.70
2018-12-04T14:21:12.506Z,43.20
2018-12-04T14:23:41.290Z,43.40
2018-12-04T14:26:09.455Z,43.30
2018-12-04T14:28:37.630Z,43.50
2018-12-04T14:31:05.921Z,42.70
2018-12-04T14:33:34.152Z,43.20
2018-12-04T14:36:06.236Z,44.10
2018-12-04T14:38:53.140Z,44.30
2018-12-04T14:41:22.486Z,44.10
2018-12-04T14:43:53.914Z,45.10
2018-12-04T14:46:22.197Z,45.40
2018-12-04T14:49:13.691Z,46.80
2018-12-04T14:51:41.873Z,47.50
2018-12-04T14:54:10.120Z,49.30
2018-12-04T14:56:38.384Z,49.20
2018-12-04T14:59:06.742Z,49.30
2018-12-04T15:01:35.005Z,49.10
2018-12-04T15:04:03.161Z,49.10
2018-12-04T15:06:31.321Z,49.20
2018-12-04T15:08:59.966Z,52.40
2018-12-04T15:11:28.137Z,53.40
2018-12-04T15:13:56.343Z,51.70
2018-12-04T15:16:24.589Z,52.30
2018-12-04T15:18:52.873Z,53.30
2018-12-04T15:21:20.987Z,54.20
2018-12-04T15:23:49.104Z,54.80
2018-12-04T15:26:17.238Z,56.60
2018-12-04T15:28:46.000Z,55.30
2018-12-04T15:31:14.247Z,56.10
2018-12-04T15:33:42.410Z,58.10
2018-12-04T15:36:10.620Z,57.50
2018-12-04T15:38:38.756Z,56.40
2018-12-04T15:41:07.045Z,57.50
2018-12-04T15:43:35.233Z,58.80
2018-12-04T15:46:03.581Z,58.60
2018-12-04T15:48:31.944Z,59.70
2018-12-04T15:51:00.349Z,58.50
2018-12-04T15:53:28.544Z,59.40
2018-12-04T15:55:56.892Z,58.50
2018-12-04T15:58:25.067Z,61.00
2018-12-04T16:00:53.379Z,61.90
2018-12-04T16:03:21.444Z,61.60
2018-12-04T16:05:49.622Z,61.30
2018-12-04T16:08:18.819Z,61.60
2018-12-04T16:10:46.910Z,62.20
2018-12-04T16:13:16.708Z,63.20
2018-12-04T16:15:45.297Z,62.30
2018-12-04T16:18:13.428Z,63.50
2018-12-04T16:20:41.736Z,62.20
2018-12-04T16:23:09.843Z,62.20
2018-12-04T16:25:38.052Z,62.80
2018-12-04T16:28:06.239Z,64.30
2018-12-04T16:30:34.438Z,63.70
2018-12-04T16:33:02.681Z,66.00
2018-12-04T16:35:30.905Z,65.50
2018-12-04T16:38:04.256Z,65.70
2018-12-04T16:40:32.487Z,65.50
2018-12-04T16:43:00.670Z,66.10
2018-12-04T16:45:29.691Z,65.60
2018-12-04T16:47:58.307Z,64.60
2018-12-04T16:50:27.178Z,65.90
2018-12-04T16:52:55.433Z,66.60
2018-12-04T16:55:23.658Z,67.10
2018-12-04T16:57:51.751Z,67.70
2018-12-04T17:00:20.010Z,68.50
2018-12-04T17:02:48.113Z,67.00
2018-12-04T17:05:16.276Z,68.00
2018-12-04T17:07:44.703Z,68.30
2018-12-04T17:10:13.369Z,69.20
2018-12-04T17:12:41.618Z,70.00
2018-12-04T17:15:11.229Z,69.60
2018-12-04T17:17:39.414Z,69.60
2018-12-04T17:20:08.603Z,69.10
2018-12-04T17:22:36.687Z,71.80
2018-12-04T17:25:05.143Z,69.70
2018-12-04T17:27:33.342Z,70.40
2018-12-04T17:30:02.248Z,71.50
2018-12-04T17:32:31.046Z,71.70
2018-12-04T17:34:59.263Z,73.50
2018-12-04T17:37:27.566Z,71.70
2018-12-04T17:39:55.707Z,73.30
2018-12-04T17:42:23.897Z,71.00
2018-12-04T17:44:52.161Z,70.80
2018-12-04T17:47:20.277Z,72.50
2018-12-04T17:49:48.543Z,73.30
2018-12-04T17:52:16.686Z,73.40
2018-12-04T17:54:44.834Z,72.20
2018-12-04T17:57:14.439Z,72.30
2018-12-04T17:59:43.074Z,72.90
2018-12-04T18:02:11.277Z,73.20
2018-12-04T18:04:39.401Z,74.70
2018-12-04T18:07:13.289Z,76.10
2018-12-04T18:09:47.785Z,75.60
2018-12-04T18:12:15.899Z,76.10
2018-12-04T18:14:44.194Z,76.10
2018-12-04T18:17:12.278Z,75.60
2018-12-04T18:19:40.423Z,76.20
2018-12-04T18:22:08.538Z,74.70
2018-12-04T18:24:36.642Z,76.10
2018-12-04T18:27:04.871Z,76.10
2018-12-04T18:29:33.014Z,76.00
2018-12-04T18:32:01.769Z,76.00
2018-12-04T18:34:30.888Z,77.40
2018-12-04T18:36:59.147Z,76.10
2018-12-04T18:39:27.351Z,76.80
2018-12-04T18:42:00.522Z,76.20
2018-12-04T18:44:32.454Z,74.80
2018-12-04T18:47:00.548Z,76.10
2018-12-04T18:49:29.500Z,76.10
2018-12-04T18:51:59.318Z,76.50
2018-12-04T18:54:27.935Z,76.80
2018-12-04T18:57:01.993Z,76.00
2018-12-04T18:59:30.169Z,75.80
2018-12-04T19:02:01.567Z,78.40
2018-12-04T19:04:29.731Z,79.00
2018-12-04T19:06:58.110Z,78.30
2018-12-04T19:09:26.327Z,78.10
2018-12-04T19:11:56.299Z,78.20
2018-12-04T19:14:26.221Z,78.40
2018-12-04T19:16:54.489Z,78.60
2018-12-04T19:19:22.889Z,79.50
2018-12-04T19:21:50.981Z,79.20
2018-12-04T19:24:19.120Z,79.20
2018-12-04T19:26:47.285Z,78.80
2018-12-04T19:29:15.490Z,78.50
2018-12-04T19:31:45.026Z,78.00
2018-12-04T19:34:13.641Z,78.20
2018-12-04T19:36:41.992Z,78.60
2018-12-04T19:39:10.219Z,78.40
2018-12-04T19:41:38.418Z,78.40
2018-12-04T19:44:06.814Z,79.40
2018-12-04T19:46:35.470Z,80.10
2018-12-04T19:49:03.771Z,79.10
2018-12-04T19:51:32.258Z,78.70
2018-12-04T19:54:00.995Z,80.40
2018-12-04T19:56:29.221Z,79.20
2018-12-04T19:58:57.542Z,78.80
2018-12-04T20:01:25.931Z,79.70
2018-12-04T20:03:54.184Z,79.20
2018-12-04T20:06:22.577Z,80.70
2018-12-04T20:08:52.212Z,78.20
2018-12-04T20:11:20.616Z,78.80
2018-12-04T20:13:48.796Z,79.70
2018-12-04T20:16:17.079Z,80.00
2018-12-04T20:18:45.207Z,80.20
2018-12-04T20:21:13.622Z,78.30
2018-12-04T20:23:41.949Z,80.40
2018-12-04T20:26:10.115Z,80.30
2018-12-04T20:28:43.580Z,78.60
2018-12-04T20:31:11.840Z,78.10
2018-12-04T20:33:41.182Z,78.20
2018-12-04T20:36:10.930Z,78.30
2018-12-04T20:38:40.036Z,78.80
2018-12-04T20:41:08.254Z,79.30
2018-12-04T20:43:36.452Z,80.10
2018-12-04T20:46:06.117Z,82.00
2018-12-04T20:48:34.600Z,81.00
2018-12-04T20:51:02.812Z,80.00
2018-12-04T20:53:30.970Z,80.10
2018-12-04T20:55:59.166Z,79.00
2018-12-04T20:58:27.322Z,78.80
2018-12-04T21:00:55.578Z,80.70
2018-12-04T21:03:23.697Z,80.00
2018-12-04T21:05:51.902Z,81.60
2018-12-04T21:08:40.252Z,80.40
2018-12-04T21:11:08.442Z,81.40
2018-12-04T21:13:37.443Z,79.60
2018-12-04T21:16:05.843Z,79.70
2018-12-04T21:18:33.959Z,80.40
2018-12-04T21:21:02.174Z,80.30
2018-12-04T21:23:30.346Z,80.60
2018-12-04T21:25:58.476Z,80.90
2018-12-04T21:28:26.645Z,80.00
2018-12-04T21:31:00.504Z,80.00
2018-12-04T21:35:37.804Z,80.00
2018-12-04T21:40:17.504Z,80.00
2018-12-04T21:42:51.232Z,80.00
2018-12-04T21:45:25.046Z,79.70
2018-12-04T21:50:54.075Z,80.50
2018-12-04T21:53:22.340Z,81.50
2018-12-04T21:55:50.442Z,82.50
2018-12-04T21:58:19.637Z,84.30
2018-12-04T22:00:48.019Z,83.40
2018-12-04T22:03:16.181Z,82.50
2018-12-04T22:05:44.290Z,83.20
2018-12-04T22:08:12.444Z,83.10
2018-12-04T22:10:40.597Z,83.20
2018-12-04T22:13:08.709Z,82.20
2018-12-04T22:15:36.925Z,82.80
2018-12-04T22:18:05.153Z,82.00
2018-12-04T22:20:33.859Z,81.80
2018-12-04T22:23:02.087Z,83.20
2018-12-04T22:25:30.291Z,83.10
2018-12-04T22:27:58.534Z,82.60
2018-12-04T22:30:28.177Z,82.50
2018-12-04T22:32:56.350Z,81.70
2018-12-04T22:35:24.667Z,81.10
2018-12-04T22:37:54.555Z,80.60
2018-12-04T22:40:22.727Z,80.30
2018-12-04T22:42:50.892Z,80.00
2018-12-04T22:45:25.235Z,81.00
2018-12-04T22:47:54.745Z,81.60
2018-12-04T22:50:24.054Z,81.90
2018-12-04T22:52:52.276Z,82.30
2018-12-04T22:55:20.452Z,82.70
2018-12-04T22:57:48.902Z,82.90
2018-12-04T23:00:28.513Z,83.20
2018-12-04T23:02:56.849Z,84.00
2018-12-04T23:05:24.988Z,83.80
2018-12-04T23:07:54.171Z,84.30
2018-12-04T23:10:22.328Z,84.40
2018-12-04T23:12:50.494Z,84.50
2018-12-04T23:15:18.641Z,84.50
2018-12-04T23:17:48.100Z,82.00
2018-12-04T23:20:16.311Z,83.20
2018-12-04T23:22:44.409Z,83.10
2018-12-04T23:25:14.594Z,83.30
2018-12-04T23:27:43.193Z,83.40
2018-12-04T23:30:11.640Z,83.70
2018-12-04T23:32:39.742Z,82.20
2018-12-04T23:35:08.120Z,82.70
2018-12-04T23:37:36.200Z,82.00
2018-12-04T23:40:05.093Z,84.60
2018-12-04T23:42:33.135Z,86.40
2018-12-04T23:45:01.252Z,85.00
2018-12-04T23:47:29.481Z,85.10
2018-12-04T23:49:57.692Z,83.50
2018-12-04T23:52:25.857Z,82.40
2018-12-04T23:54:54.102Z,79.80
2018-12-04T23:57:22.291Z,80.00
2018-12-04T23:59:51.335Z,81.60
